< < Back
Terminal Aerodrome Forecast


Current Version              Previous Versions:   1  2  3  4  5  6  7  8  9  

Terminal Aerodrome Forecast

331
FTUS42 KGSP 190436 AAC
TAFAND
TAF AMD
KAND 190436Z 1905/1924 10006KT P6SM VCSH BKN015
     FM190700 10008KT 3SM SHRA BR OVC007
     FM191400 16010G18KT 3SM SHRA BR VCTS OVC006CB=

Latest METAR

731
SAUS70 KWBC 190900 RRA
MTRAND
METAR KAND 190856Z AUTO 13004KT 6SM BR OVC002 18/18 A2991 RMK AO2 SLP121
T01830178 56014


USA.gov is the U.S. government's official web portal to all federal, state and local government web resources and services.